sensor_id;sensor_type;location;lat;lon;timestamp;temperature;humidity
60039;DHT22;45916;52.734;6.544;2023-05-31T00:02:15;9.20;99.90
60039;DHT22;45916;52.734;6.544;2023-05-31T00:04:41;9.20;99.90
60039;DHT22;45916;52.734;6.544;2023-05-31T00:07:07;9.10;99.90
60039;DHT22;45916;52.734;6.544;2023-05-31T00:09:33;9.10;99.90
60039;DHT22;45916;52.734;6.544;2023-05-31T00:11:59;9.10;99.90
60039;DHT22;45916;52.734;6.544;2023-05-31T00:14:25;9.10;99.90
60039;DHT22;45916;52.734;6.544;2023-05-31T00:16:51;9.10;99.90
60039;DHT22;45916;52.734;6.544;2023-05-31T00:19:17;9.10;99.90
60039;DHT22;45916;52.734;6.544;2023-05-31T00:21:44;9.10;99.90
60039;DHT22;45916;52.734;6.544;2023-05-31T00:24:11;9.00;99.90
60039;DHT22;45916;52.734;6.544;2023-05-31T00:26:36;9.00;99.90
60039;DHT22;45916;52.734;6.544;2023-05-31T00:29:02;9.00;99.90
60039;DHT22;45916;52.734;6.544;2023-05-31T00:31:28;9.00;99.90
60039;DHT22;45916;52.734;6.544;2023-05-31T00:33:54;9.00;99.90
60039;DHT22;45916;52.734;6.544;2023-05-31T00:36:19;8.90;99.90
60039;DHT22;45916;52.734;6.544;2023-05-31T00:38:45;9.00;99.90
60039;DHT22;45916;52.734;6.544;2023-05-31T00:41:11;8.90;99.90
60039;DHT22;45916;52.734;6.544;2023-05-31T00:43:37;8.90;99.90
60039;DHT22;45916;52.734;6.544;2023-05-31T00:46:02;8.80;99.90
60039;DHT22;45916;52.734;6.544;2023-05-31T00:48:29;8.80;99.90
60039;DHT22;45916;52.734;6.544;2023-05-31T00:50:55;8.80;99.90
60039;DHT22;45916;52.734;6.544;2023-05-31T00:53:22;8.70;99.90
60039;DHT22;45916;52.734;6.544;2023-05-31T00:55:49;8.70;99.90
60039;DHT22;45916;52.734;6.544;2023-05-31T00:58:15;8.70;99.90
60039;DHT22;45916;52.734;6.544;2023-05-31T01:00:42;8.70;99.90
60039;DHT22;45916;52.734;6.544;2023-05-31T01:03:08;8.70;99.90
60039;DHT22;45916;52.734;6.544;2023-05-31T01:05:35;8.60;99.90
60039;DHT22;45916;52.734;6.544;2023-05-31T01:08:01;8.60;99.90
60039;DHT22;45916;52.734;6.544;2023-05-31T01:10:28;8.60;99.90
60039;DHT22;45916;52.734;6.544;2023-05-31T01:13:17;8.60;99.90
60039;DHT22;45916;52.734;6.544;2023-05-31T01:16:06;8.60;99.90
60039;DHT22;45916;52.734;6.544;2023-05-31T01:18:41;8.60;99.90
60039;DHT22;45916;52.734;6.544;2023-05-31T01:21:11;8.60;99.90
60039;DHT22;45916;52.734;6.544;2023-05-31T01:26:44;8.60;99.90
60039;DHT22;45916;52.734;6.544;2023-05-31T01:29:17;8.50;99.90
60039;DHT22;45916;52.734;6.544;2023-05-31T01:31:45;8.50;99.90
60039;DHT22;45916;52.734;6.544;2023-05-31T01:34:11;8.50;99.90
60039;DHT22;45916;52.734;6.544;2023-05-31T01:36:37;8.50;99.90
60039;DHT22;45916;52.734;6.544;2023-05-31T01:39:03;8.40;99.90
60039;DHT22;45916;52.734;6.544;2023-05-31T01:41:32;8.40;99.90
60039;DHT22;45916;52.734;6.544;2023-05-31T01:43:59;8.40;99.90
60039;DHT22;45916;52.734;6.544;2023-05-31T01:46:26;8.30;99.90
60039;DHT22;45916;52.734;6.544;2023-05-31T01:48:52;8.30;99.90
60039;DHT22;45916;52.734;6.544;2023-05-31T01:51:19;8.20;99.90
60039;DHT22;45916;52.734;6.544;2023-05-31T01:53:46;8.20;99.90
60039;DHT22;45916;52.734;6.544;2023-05-31T01:56:12;8.10;99.90
60039;DHT22;45916;52.734;6.544;2023-05-31T01:58:40;8.10;99.90
60039;DHT22;45916;52.734;6.544;2023-05-31T02:01:11;8.10;99.90
60039;DHT22;45916;52.734;6.544;2023-05-31T02:03:40;8.00;99.90
60039;DHT22;45916;52.734;6.544;2023-05-31T02:06:06;7.90;99.90
60039;DHT22;45916;52.734;6.544;2023-05-31T02:08:31;8.00;99.90
60039;DHT22;45916;52.734;6.544;2023-05-31T02:10:57;8.00;99.90
60039;DHT22;45916;52.734;6.544;2023-05-31T02:13:25;7.90;99.90
60039;DHT22;45916;52.734;6.544;2023-05-31T02:15:52;7.90;99.90
60039;DHT22;45916;52.734;6.544;2023-05-31T02:18:17;8.00;99.90
60039;DHT22;45916;52.734;6.544;2023-05-31T02:20:43;7.90;99.90
60039;DHT22;45916;52.734;6.544;2023-05-31T02:23:09;7.90;99.90
60039;DHT22;45916;52.734;6.544;2023-05-31T02:25:35;7.90;99.90
60039;DHT22;45916;52.734;6.544;2023-05-31T02:28:01;7.90;99.90
60039;DHT22;45916;52.734;6.544;2023-05-31T02:30:28;7.80;99.90
60039;DHT22;45916;52.734;6.544;2023-05-31T02:32:54;7.80;99.90
60039;DHT22;45916;52.734;6.544;2023-05-31T02:35:19;7.80;99.90
60039;DHT22;45916;52.734;6.544;2023-05-31T02:37:45;7.70;99.90
60039;DHT22;45916;52.734;6.544;2023-05-31T02:40:12;7.80;99.90
60039;DHT22;45916;52.734;6.544;2023-05-31T02:42:42;7.70;99.90
60039;DHT22;45916;52.734;6.544;2023-05-31T02:45:09;7.70;99.90
60039;DHT22;45916;52.734;6.544;2023-05-31T02:47:39;7.80;99.90
60039;DHT22;45916;52.734;6.544;2023-05-31T02:50:06;7.80;99.90
60039;DHT22;45916;52.734;6.544;2023-05-31T02:52:33;7.70;99.90
60039;DHT22;45916;52.734;6.544;2023-05-31T02:54:59;7.70;99.90
60039;DHT22;45916;52.734;6.544;2023-05-31T02:57:25;7.80;99.90
60039;DHT22;45916;52.734;6.544;2023-05-31T02:59:55;7.80;99.90
60039;DHT22;45916;52.734;6.544;2023-05-31T03:02:24;7.70;99.90
60039;DHT22;45916;52.734;6.544;2023-05-31T03:04:50;7.70;99.90
60039;DHT22;45916;52.734;6.544;2023-05-31T03:07:17;7.80;99.90
60039;DHT22;45916;52.734;6.544;2023-05-31T03:09:42;7.80;99.90
60039;DHT22;45916;52.734;6.544;2023-05-31T03:12:09;7.80;99.90
60039;DHT22;45916;52.734;6.544;2023-05-31T03:14:35;7.70;99.90
60039;DHT22;45916;52.734;6.544;2023-05-31T03:17:01;7.80;99.90
60039;DHT22;45916;52.734;6.544;2023-05-31T03:19:28;7.80;99.90
60039;DHT22;45916;52.734;6.544;2023-05-31T03:21:54;7.80;99.90
60039;DHT22;45916;52.734;6.544;2023-05-31T03:24:20;7.80;99.90
60039;DHT22;45916;52.734;6.544;2023-05-31T03:26:45;7.80;99.90
60039;DHT22;45916;52.734;6.544;2023-05-31T03:29:11;7.80;99.90
60039;DHT22;45916;52.734;6.544;2023-05-31T03:31:37;7.80;99.90
60039;DHT22;45916;52.734;6.544;2023-05-31T03:34:02;7.80;99.90
60039;DHT22;45916;52.734;6.544;2023-05-31T03:36:28;7.90;99.90
60039;DHT22;45916;52.734;6.544;2023-05-31T03:38:53;7.90;99.90
60039;DHT22;45916;52.734;6.544;2023-05-31T03:41:19;7.90;99.90
60039;DHT22;45916;52.734;6.544;2023-05-31T03:43:45;7.90;99.90
60039;DHT22;45916;52.734;6.544;2023-05-31T03:46:10;7.90;99.90
60039;DHT22;45916;52.734;6.544;2023-05-31T03:48:36;7.90;99.90
60039;DHT22;45916;52.734;6.544;2023-05-31T03:51:02;8.00;99.90
60039;DHT22;45916;52.734;6.544;2023-05-31T03:53:28;8.10;99.90
60039;DHT22;45916;52.734;6.544;2023-05-31T03:55:53;8.20;99.90
60039;DHT22;45916;52.734;6.544;2023-05-31T03:58:19;8.20;99.90
60039;DHT22;45916;52.734;6.544;2023-05-31T04:00:45;8.30;99.90
60039;DHT22;45916;52.734;6.544;2023-05-31T04:03:12;8.40;99.90
60039;DHT22;45916;52.734;6.544;2023-05-31T04:05:39;8.40;99.90
60039;DHT22;45916;52.734;6.544;2023-05-31T04:08:05;8.60;99.90
60039;DHT22;45916;52.734;6.544;2023-05-31T04:10:32;8.70;99.90
60039;DHT22;45916;52.734;6.544;2023-05-31T04:12:58;9.00;99.90
60039;DHT22;45916;52.734;6.544;2023-05-31T04:15:23;9.10;99.90
60039;DHT22;45916;52.734;6.544;2023-05-31T04:17:49;9.20;99.90
60039;DHT22;45916;52.734;6.544;2023-05-31T04:20:15;9.40;99.90
60039;DHT22;45916;52.734;6.544;2023-05-31T04:22:42;9.40;99.90
60039;DHT22;45916;52.734;6.544;2023-05-31T04:25:08;9.50;99.90
60039;DHT22;45916;52.734;6.544;2023-05-31T04:27:34;9.60;99.90
60039;DHT22;45916;52.734;6.544;2023-05-31T04:30:04;9.70;99.90
60039;DHT22;45916;52.734;6.544;2023-05-31T04:32:31;9.90;99.90
60039;DHT22;45916;52.734;6.544;2023-05-31T04:35:02;10.00;99.90
60039;DHT22;45916;52.734;6.544;2023-05-31T04:37:31;10.10;99.90
60039;DHT22;45916;52.734;6.544;2023-05-31T04:39:58;10.20;99.90
60039;DHT22;45916;52.734;6.544;2023-05-31T04:42:28;10.40;99.90
60039;DHT22;45916;52.734;6.544;2023-05-31T04:44:54;10.50;99.90
60039;DHT22;45916;52.734;6.544;2023-05-31T04:47:26;10.70;99.90
60039;DHT22;45916;52.734;6.544;2023-05-31T04:49:55;10.90;99.90
60039;DHT22;45916;52.734;6.544;2023-05-31T04:52:27;11.30;99.90
60039;DHT22;45916;52.734;6.544;2023-05-31T04:54:55;12.20;99.90
60039;DHT22;45916;52.734;6.544;2023-05-31T04:57:24;13.60;99.90
60039;DHT22;45916;52.734;6.544;2023-05-31T04:59:52;15.10;99.90
60039;DHT22;45916;52.734;6.544;2023-05-31T05:02:18;16.60;99.90
60039;DHT22;45916;52.734;6.544;2023-05-31T05:04:44;18.00;99.90
60039;DHT22;45916;52.734;6.544;2023-05-31T05:07:10;19.20;99.90
60039;DHT22;45916;52.734;6.544;2023-05-31T05:09:36;20.50;99.90
60039;DHT22;45916;52.734;6.544;2023-05-31T05:12:02;21.70;99.90
60039;DHT22;45916;52.734;6.544;2023-05-31T05:14:30;22.80;99.90
60039;DHT22;45916;52.734;6.544;2023-05-31T05:16:56;23.90;96.70
60039;DHT22;45916;52.734;6.544;2023-05-31T05:19:21;24.80;91.30
60039;DHT22;45916;52.734;6.544;2023-05-31T05:21:47;25.60;82.90
60039;DHT22;45916;52.734;6.544;2023-05-31T05:24:13;26.50;74.90
60039;DHT22;45916;52.734;6.544;2023-05-31T05:26:40;27.40;69.50
60039;DHT22;45916;52.734;6.544;2023-05-31T05:29:06;28.20;63.60
60039;DHT22;45916;52.734;6.544;2023-05-31T05:31:31;28.90;59.40
60039;DHT22;45916;52.734;6.544;2023-05-31T05:33:57;29.60;57.40
60039;DHT22;45916;52.734;6.544;2023-05-31T05:36:23;30.00;56.40
60039;DHT22;45916;52.734;6.544;2023-05-31T05:38:48;30.60;54.70
60039;DHT22;45916;52.734;6.544;2023-05-31T05:41:14;31.10;51.40
60039;DHT22;45916;52.734;6.544;2023-05-31T05:43:40;31.60;51.00
60039;DHT22;45916;52.734;6.544;2023-05-31T05:46:06;31.70;49.80
60039;DHT22;45916;52.734;6.544;2023-05-31T05:48:31;31.80;49.80
60039;DHT22;45916;52.734;6.544;2023-05-31T05:50:57;31.50;49.50
60039;DHT22;45916;52.734;6.544;2023-05-31T05:53:23;31.70;49.30
60039;DHT22;45916;52.734;6.544;2023-05-31T05:55:51;32.50;48.50
60039;DHT22;45916;52.734;6.544;2023-05-31T05:58:17;33.20;47.20
60039;DHT22;45916;52.734;6.544;2023-05-31T06:00:47;33.90;45.50
60039;DHT22;45916;52.734;6.544;2023-05-31T06:03:16;34.70;44.40
60039;DHT22;45916;52.734;6.544;2023-05-31T06:05:42;35.00;43.30
60039;DHT22;45916;52.734;6.544;2023-05-31T06:08:09;35.50;42.50
60039;DHT22;45916;52.734;6.544;2023-05-31T06:10:35;36.10;41.10
60039;DHT22;45916;52.734;6.544;2023-05-31T06:13:01;36.70;40.60
60039;DHT22;45916;52.734;6.544;2023-05-31T06:15:26;37.30;39.90
60039;DHT22;45916;52.734;6.544;2023-05-31T06:17:52;37.60;38.60
60039;DHT22;45916;52.734;6.544;2023-05-31T06:20:18;38.20;37.80
60039;DHT22;45916;52.734;6.544;2023-05-31T06:22:44;38.50;37.00
60039;DHT22;45916;52.734;6.544;2023-05-31T06:25:09;38.80;36.60
60039;DHT22;45916;52.734;6.544;2023-05-31T06:27:36;39.00;36.40
60039;DHT22;45916;52.734;6.544;2023-05-31T06:30:02;39.30;35.60
60039;DHT22;45916;52.734;6.544;2023-05-31T06:32:28;39.50;35.50
60039;DHT22;45916;52.734;6.544;2023-05-31T06:34:54;39.80;35.00
60039;DHT22;45916;52.734;6.544;2023-05-31T06:37:20;40.10;34.50
60039;DHT22;45916;52.734;6.544;2023-05-31T06:39:47;40.40;34.20
60039;DHT22;45916;52.734;6.544;2023-05-31T06:42:13;40.90;33.70
60039;DHT22;45916;52.734;6.544;2023-05-31T06:44:40;40.60;33.30
60039;DHT22;45916;52.734;6.544;2023-05-31T06:47:07;39.80;32.90
60039;DHT22;45916;52.734;6.544;2023-05-31T06:49:33;39.30;35.40
60039;DHT22;45916;52.734;6.544;2023-05-31T06:51:58;39.70;35.20
60039;DHT22;45916;52.734;6.544;2023-05-31T06:56:50;40.40;33.00
60039;DHT22;45916;52.734;6.544;2023-05-31T06:59:16;40.40;33.50
60039;DHT22;45916;52.734;6.544;2023-05-31T07:01:42;40.80;33.80
60039;DHT22;45916;52.734;6.544;2023-05-31T07:04:07;40.30;32.60
60039;DHT22;45916;52.734;6.544;2023-05-31T07:06:34;40.10;33.40
60039;DHT22;45916;52.734;6.544;2023-05-31T07:09:00;40.50;33.70
60039;DHT22;45916;52.734;6.544;2023-05-31T07:11:26;41.00;32.80
60039;DHT22;45916;52.734;6.544;2023-05-31T07:13:52;41.30;32.60
60039;DHT22;45916;52.734;6.544;2023-05-31T07:16:17;41.70;32.30
60039;DHT22;45916;52.734;6.544;2023-05-31T07:18:45;42.30;31.30
60039;DHT22;45916;52.734;6.544;2023-05-31T07:21:12;41.50;31.40
60039;DHT22;45916;52.734;6.544;2023-05-31T07:23:37;41.50;31.80
60039;DHT22;45916;52.734;6.544;2023-05-31T07:26:03;41.70;31.00
60039;DHT22;45916;52.734;6.544;2023-05-31T07:28:29;41.90;31.80
60039;DHT22;45916;52.734;6.544;2023-05-31T07:30:55;41.60;32.30
60039;DHT22;45916;52.734;6.544;2023-05-31T07:33:21;41.50;32.00
60039;DHT22;45916;52.734;6.544;2023-05-31T07:35:47;41.60;32.30
60039;DHT22;45916;52.734;6.544;2023-05-31T07:38:12;42.10;31.10
60039;DHT22;45916;52.734;6.544;2023-05-31T07:40:38;42.80;30.60
60039;DHT22;45916;52.734;6.544;2023-05-31T07:43:04;43.20;29.80
60039;DHT22;45916;52.734;6.544;2023-05-31T07:45:29;43.20;30.00
60039;DHT22;45916;52.734;6.544;2023-05-31T07:47:56;43.10;29.80
60039;DHT22;45916;52.734;6.544;2023-05-31T07:50:22;43.20;29.20
60039;DHT22;45916;52.734;6.544;2023-05-31T07:52:48;44.10;29.10
60039;DHT22;45916;52.734;6.544;2023-05-31T07:55:15;44.60;29.20
60039;DHT22;45916;52.734;6.544;2023-05-31T07:57:41;45.10;28.00
60039;DHT22;45916;52.734;6.544;2023-05-31T08:00:08;45.60;27.40
60039;DHT22;45916;52.734;6.544;2023-05-31T08:02:34;45.30;27.80
60039;DHT22;45916;52.734;6.544;2023-05-31T08:05:00;44.90;28.20
60039;DHT22;45916;52.734;6.544;2023-05-31T08:07:27;43.50;28.80
60039;DHT22;45916;52.734;6.544;2023-05-31T08:09:53;43.40;28.80
60039;DHT22;45916;52.734;6.544;2023-05-31T08:12:19;44.00;28.10
60039;DHT22;45916;52.734;6.544;2023-05-31T08:14:45;44.60;27.90
60039;DHT22;45916;52.734;6.544;2023-05-31T08:17:10;44.70;27.30
60039;DHT22;45916;52.734;6.544;2023-05-31T08:19:36;44.50;28.30
60039;DHT22;45916;52.734;6.544;2023-05-31T08:22:02;43.20;28.40
60039;DHT22;45916;52.734;6.544;2023-05-31T08:24:28;42.70;28.10
60039;DHT22;45916;52.734;6.544;2023-05-31T08:26:54;42.00;29.30
60039;DHT22;45916;52.734;6.544;2023-05-31T08:29:21;42.60;29.50
60039;DHT22;45916;52.734;6.544;2023-05-31T08:31:47;42.30;28.70
60039;DHT22;45916;52.734;6.544;2023-05-31T08:34:13;43.30;28.60
60039;DHT22;45916;52.734;6.544;2023-05-31T08:36:39;42.90;28.60
60039;DHT22;45916;52.734;6.544;2023-05-31T08:39:09;41.30;28.80
60039;DHT22;45916;52.734;6.544;2023-05-31T08:42:00;40.20;30.60
60039;DHT22;45916;52.734;6.544;2023-05-31T08:44:29;40.60;30.70
60039;DHT22;45916;52.734;6.544;2023-05-31T08:47:08;40.90;31.00
60039;DHT22;45916;52.734;6.544;2023-05-31T08:49:35;40.70;30.80
60039;DHT22;45916;52.734;6.544;2023-05-31T08:52:01;41.90;32.10
60039;DHT22;45916;52.734;6.544;2023-05-31T08:54:28;42.70;29.60
60039;DHT22;45916;52.734;6.544;2023-05-31T08:56:54;43.70;29.40
60039;DHT22;45916;52.734;6.544;2023-05-31T08:59:20;43.90;28.80
60039;DHT22;45916;52.734;6.544;2023-05-31T09:01:46;43.30;28.70
60039;DHT22;45916;52.734;6.544;2023-05-31T09:04:14;42.50;28.00
60039;DHT22;45916;52.734;6.544;2023-05-31T09:06:40;41.60;29.40
60039;DHT22;45916;52.734;6.544;2023-05-31T09:09:06;40.40;29.40
60039;DHT22;45916;52.734;6.544;2023-05-31T09:11:35;40.70;30.50
60039;DHT22;45916;52.734;6.544;2023-05-31T09:14:07;41.70;30.10
60039;DHT22;45916;52.734;6.544;2023-05-31T09:16:34;40.20;29.30
60039;DHT22;45916;52.734;6.544;2023-05-31T09:19:05;40.60;30.00
60039;DHT22;45916;52.734;6.544;2023-05-31T09:21:38;41.90;30.00
60039;DHT22;45916;52.734;6.544;2023-05-31T09:24:05;43.20;28.70
60039;DHT22;45916;52.734;6.544;2023-05-31T09:26:31;43.80;27.80
60039;DHT22;45916;52.734;6.544;2023-05-31T09:28:58;45.00;28.60
60039;DHT22;45916;52.734;6.544;2023-05-31T09:31:25;45.50;28.00
60039;DHT22;45916;52.734;6.544;2023-05-31T09:33:51;46.00;28.70
60039;DHT22;45916;52.734;6.544;2023-05-31T09:36:27;45.60;26.70
60039;DHT22;45916;52.734;6.544;2023-05-31T09:39:00;44.30;27.70
60039;DHT22;45916;52.734;6.544;2023-05-31T09:41:27;43.70;28.00
60039;DHT22;45916;52.734;6.544;2023-05-31T09:43:53;43.50;28.60
60039;DHT22;45916;52.734;6.544;2023-05-31T09:46:20;44.10;28.10
60039;DHT22;45916;52.734;6.544;2023-05-31T09:48:59;44.60;28.50
60039;DHT22;45916;52.734;6.544;2023-05-31T09:51:26;44.90;28.20
60039;DHT22;45916;52.734;6.544;2023-05-31T09:53:52;44.60;27.30
60039;DHT22;45916;52.734;6.544;2023-05-31T09:56:23;42.40;28.50
60039;DHT22;45916;52.734;6.544;2023-05-31T09:58:50;42.30;28.60
60039;DHT22;45916;52.734;6.544;2023-05-31T10:01:16;42.50;28.60
60039;DHT22;45916;52.734;6.544;2023-05-31T10:03:43;42.60;29.60
60039;DHT22;45916;52.734;6.544;2023-05-31T10:06:09;42.90;30.40
60039;DHT22;45916;52.734;6.544;2023-05-31T10:08:35;43.50;29.30
60039;DHT22;45916;52.734;6.544;2023-05-31T10:11:02;44.20;29.40
60039;DHT22;45916;52.734;6.544;2023-05-31T10:13:29;44.30;28.30
60039;DHT22;45916;52.734;6.544;2023-05-31T10:16:03;44.40;28.90
60039;DHT22;45916;52.734;6.544;2023-05-31T10:18:32;44.70;28.90
60039;DHT22;45916;52.734;6.544;2023-05-31T10:21:22;44.40;29.40
60039;DHT22;45916;52.734;6.544;2023-05-31T10:23:58;43.30;28.60
60039;DHT22;45916;52.734;6.544;2023-05-31T10:26:44;42.50;28.00
60039;DHT22;45916;52.734;6.544;2023-05-31T10:29:21;41.60;29.50
60039;DHT22;45916;52.734;6.544;2023-05-31T10:31:50;41.70;29.80
60039;DHT22;45916;52.734;6.544;2023-05-31T10:34:22;42.10;30.70
60039;DHT22;45916;52.734;6.544;2023-05-31T10:36:53;40.90;30.10
60039;DHT22;45916;52.734;6.544;2023-05-31T10:39:26;41.00;30.60
60039;DHT22;45916;52.734;6.544;2023-05-31T10:42:22;40.90;30.00
60039;DHT22;45916;52.734;6.544;2023-05-31T10:50:19;39.70;32.60
60039;DHT22;45916;52.734;6.544;2023-05-31T10:52:52;38.70;32.70
60039;DHT22;45916;52.734;6.544;2023-05-31T10:55:22;38.90;34.40
60039;DHT22;45916;52.734;6.544;2023-05-31T10:57:53;38.80;32.30
60039;DHT22;45916;52.734;6.544;2023-05-31T11:00:21;38.80;32.20
60039;DHT22;45916;52.734;6.544;2023-05-31T11:02:48;37.50;32.00
60039;DHT22;45916;52.734;6.544;2023-05-31T11:05:22;36.30;34.80
60039;DHT22;45916;52.734;6.544;2023-05-31T11:07:51;35.20;35.30
60039;DHT22;45916;52.734;6.544;2023-05-31T11:10:28;34.20;36.60
60039;DHT22;45916;52.734;6.544;2023-05-31T11:13:02;33.50;37.60
60039;DHT22;45916;52.734;6.544;2023-05-31T11:15:42;33.00;38.10
60039;DHT22;45916;52.734;6.544;2023-05-31T11:18:09;32.70;39.60
60039;DHT22;45916;52.734;6.544;2023-05-31T11:20:36;32.20;41.50
60039;DHT22;45916;52.734;6.544;2023-05-31T11:23:23;31.80;42.30
60039;DHT22;45916;52.734;6.544;2023-05-31T11:26:14;31.30;41.60
60039;DHT22;45916;52.734;6.544;2023-05-31T11:29:10;30.70;46.20
60039;DHT22;45916;52.734;6.544;2023-05-31T11:34:31;30.30;45.70
60039;DHT22;45916;52.734;6.544;2023-05-31T11:37:04;30.00;45.80
60039;DHT22;45916;52.734;6.544;2023-05-31T11:39:31;29.60;45.80
60039;DHT22;45916;52.734;6.544;2023-05-31T11:41:57;29.50;45.10
60039;DHT22;45916;52.734;6.544;2023-05-31T11:44:27;29.10;44.30
60039;DHT22;45916;52.734;6.544;2023-05-31T11:47:09;28.80;45.30
60039;DHT22;45916;52.734;6.544;2023-05-31T11:49:35;28.80;48.00
60039;DHT22;45916;52.734;6.544;2023-05-31T11:52:02;28.70;48.80
60039;DHT22;45916;52.734;6.544;2023-05-31T11:54:31;28.60;48.50
60039;DHT22;45916;52.734;6.544;2023-05-31T11:57:03;28.50;48.00
60039;DHT22;45916;52.734;6.544;2023-05-31T11:59:33;28.20;46.00
60039;DHT22;45916;52.734;6.544;2023-05-31T12:02:00;27.90;46.50
60039;DHT22;45916;52.734;6.544;2023-05-31T12:04:40;27.50;47.40
60039;DHT22;45916;52.734;6.544;2023-05-31T12:07:11;27.60;48.50
60039;DHT22;45916;52.734;6.544;2023-05-31T12:09:37;27.30;48.80
60039;DHT22;45916;52.734;6.544;2023-05-31T12:12:04;27.20;49.30
60039;DHT22;45916;52.734;6.544;2023-05-31T12:14:33;27.30;51.50
60039;DHT22;45916;52.734;6.544;2023-05-31T12:17:03;27.40;51.40
60039;DHT22;45916;52.734;6.544;2023-05-31T12:19:30;27.30;49.80
60039;DHT22;45916;52.734;6.544;2023-05-31T12:21:56;27.00;49.70
60039;DHT22;45916;52.734;6.544;2023-05-31T12:24:22;26.90;50.30
60039;DHT22;45916;52.734;6.544;2023-05-31T12:26:48;26.80;50.80
60039;DHT22;45916;52.734;6.544;2023-05-31T12:29:14;26.70;51.40
60039;DHT22;45916;52.734;6.544;2023-05-31T12:31:41;26.50;53.20
60039;DHT22;45916;52.734;6.544;2023-05-31T12:34:17;26.10;52.10
60039;DHT22;45916;52.734;6.544;2023-05-31T12:41:44;25.90;52.40
60039;DHT22;45916;52.734;6.544;2023-05-31T12:44:13;25.80;53.00
60039;DHT22;45916;52.734;6.544;2023-05-31T12:46:42;25.80;53.30
60039;DHT22;45916;52.734;6.544;2023-05-31T12:49:22;25.90;52.70
60039;DHT22;45916;52.734;6.544;2023-05-31T12:52:04;25.80;53.00
60039;DHT22;45916;52.734;6.544;2023-05-31T12:54:32;25.70;52.60
60039;DHT22;45916;52.734;6.544;2023-05-31T12:57:00;25.70;52.50
60039;DHT22;45916;52.734;6.544;2023-05-31T12:59:30;25.70;52.20
60039;DHT22;45916;52.734;6.544;2023-05-31T13:01:57;25.80;52.20
60039;DHT22;45916;52.734;6.544;2023-05-31T13:04:23;25.70;51.70
60039;DHT22;45916;52.734;6.544;2023-05-31T13:06:49;25.60;51.60
60039;DHT22;45916;52.734;6.544;2023-05-31T13:09:15;25.70;51.90
60039;DHT22;45916;52.734;6.544;2023-05-31T13:11:42;25.90;52.50
60039;DHT22;45916;52.734;6.544;2023-05-31T13:14:09;25.80;51.40
60039;DHT22;45916;52.734;6.544;2023-05-31T13:16:36;25.60;51.80
60039;DHT22;45916;52.734;6.544;2023-05-31T13:19:03;25.60;52.10
60039;DHT22;45916;52.734;6.544;2023-05-31T13:21:30;25.50;52.60
60039;DHT22;45916;52.734;6.544;2023-05-31T13:23:57;25.50;52.90
60039;DHT22;45916;52.734;6.544;2023-05-31T13:26:25;25.20;53.50
60039;DHT22;45916;52.734;6.544;2023-05-31T13:28:53;25.20;56.50
60039;DHT22;45916;52.734;6.544;2023-05-31T13:31:19;24.90;54.50
60039;DHT22;45916;52.734;6.544;2023-05-31T13:33:46;24.80;54.10
60039;DHT22;45916;52.734;6.544;2023-05-31T13:36:16;24.70;54.40
60039;DHT22;45916;52.734;6.544;2023-05-31T13:38:42;24.60;55.00
60039;DHT22;45916;52.734;6.544;2023-05-31T13:41:08;24.50;54.00
60039;DHT22;45916;52.734;6.544;2023-05-31T13:43:34;24.40;54.40
60039;DHT22;45916;52.734;6.544;2023-05-31T13:46:02;24.10;54.90
60039;DHT22;45916;52.734;6.544;2023-05-31T13:48:29;24.20;56.40
60039;DHT22;45916;52.734;6.544;2023-05-31T13:50:54;24.30;56.20
60039;DHT22;45916;52.734;6.544;2023-05-31T13:53:21;24.20;55.50
60039;DHT22;45916;52.734;6.544;2023-05-31T13:55:47;24.20;55.20
60039;DHT22;45916;52.734;6.544;2023-05-31T13:58:13;24.00;55.50
60039;DHT22;45916;52.734;6.544;2023-05-31T14:00:39;23.80;55.60
60039;DHT22;45916;52.734;6.544;2023-05-31T14:03:05;23.90;56.10
60039;DHT22;45916;52.734;6.544;2023-05-31T14:05:30;23.80;55.40
60039;DHT22;45916;52.734;6.544;2023-05-31T14:07:57;23.90;56.80
60039;DHT22;45916;52.734;6.544;2023-05-31T14:10:25;23.90;57.80
60039;DHT22;45916;52.734;6.544;2023-05-31T14:12:51;23.80;55.40
60039;DHT22;45916;52.734;6.544;2023-05-31T14:15:17;23.70;55.50
60039;DHT22;45916;52.734;6.544;2023-05-31T14:17:43;23.60;55.90
60039;DHT22;45916;52.734;6.544;2023-05-31T14:20:10;23.40;56.10
60039;DHT22;45916;52.734;6.544;2023-05-31T14:22:36;23.20;55.10
60039;DHT22;45916;52.734;6.544;2023-05-31T14:25:02;23.20;55.40
60039;DHT22;45916;52.734;6.544;2023-05-31T14:27:29;23.20;56.50
60039;DHT22;45916;52.734;6.544;2023-05-31T14:29:54;23.20;56.60
60039;DHT22;45916;52.734;6.544;2023-05-31T14:32:20;23.10;56.30
60039;DHT22;45916;52.734;6.544;2023-05-31T14:34:46;23.10;57.80
60039;DHT22;45916;52.734;6.544;2023-05-31T14:37:12;23.20;57.20
60039;DHT22;45916;52.734;6.544;2023-05-31T14:39:38;23.10;56.40
60039;DHT22;45916;52.734;6.544;2023-05-31T14:42:05;23.00;56.30
60039;DHT22;45916;52.734;6.544;2023-05-31T14:44:35;23.00;56.90
60039;DHT22;45916;52.734;6.544;2023-05-31T14:47:03;22.90;56.70
60039;DHT22;45916;52.734;6.544;2023-05-31T14:49:29;22.80;56.30
60039;DHT22;45916;52.734;6.544;2023-05-31T14:51:55;22.70;56.50
60039;DHT22;45916;52.734;6.544;2023-05-31T14:54:23;22.70;57.10
60039;DHT22;45916;52.734;6.544;2023-05-31T14:56:49;22.60;57.00
60039;DHT22;45916;52.734;6.544;2023-05-31T14:59:15;22.50;57.10
60039;DHT22;45916;52.734;6.544;2023-05-31T15:01:41;22.60;57.20
60039;DHT22;45916;52.734;6.544;2023-05-31T15:04:16;22.40;56.70
60039;DHT22;45916;52.734;6.544;2023-05-31T15:06:42;22.30;57.30
60039;DHT22;45916;52.734;6.544;2023-05-31T15:09:08;22.30;57.80
60039;DHT22;45916;52.734;6.544;2023-05-31T15:11:36;22.30;57.50
60039;DHT22;45916;52.734;6.544;2023-05-31T15:14:02;22.20;57.40
60039;DHT22;45916;52.734;6.544;2023-05-31T15:16:28;22.20;57.40
60039;DHT22;45916;52.734;6.544;2023-05-31T15:18:54;22.20;57.30
60039;DHT22;45916;52.734;6.544;2023-05-31T15:21:20;22.30;57.30
60039;DHT22;45916;52.734;6.544;2023-05-31T15:23:46;22.30;57.30
60039;DHT22;45916;52.734;6.544;2023-05-31T15:26:13;22.30;57.00
60039;DHT22;45916;52.734;6.544;2023-05-31T15:28:39;22.10;56.60
60039;DHT22;45916;52.734;6.544;2023-05-31T15:31:05;22.10;57.50
60039;DHT22;45916;52.734;6.544;2023-05-31T15:33:34;22.10;57.70
60039;DHT22;45916;52.734;6.544;2023-05-31T15:36:01;22.10;58.50
60039;DHT22;45916;52.734;6.544;2023-05-31T15:38:27;22.10;58.30
60039;DHT22;45916;52.734;6.544;2023-05-31T15:40:52;22.00;57.90
60039;DHT22;45916;52.734;6.544;2023-05-31T15:43:23;22.00;57.70
60039;DHT22;45916;52.734;6.544;2023-05-31T15:45:50;22.00;58.10
60039;DHT22;45916;52.734;6.544;2023-05-31T15:48:16;21.80;57.80
60039;DHT22;45916;52.734;6.544;2023-05-31T15:50:42;21.80;58.00
60039;DHT22;45916;52.734;6.544;2023-05-31T15:53:08;21.70;58.10
60039;DHT22;45916;52.734;6.544;2023-05-31T15:55:35;21.70;58.10
60039;DHT22;45916;52.734;6.544;2023-05-31T15:58:01;21.70;59.10